Time;durP1;ratioP1;P1;durP2;ratioP2;P2;SDS_P1;SDS_P2;PMS_P1;PMS_P2;Temp;Humidity;BMP_temperature;BMP_pressure;BME280_temperature;BME280_humidity;BME280_pressure;Samples;Min_cycle;Max_cycle;Signal;HPM_P1;HPM_P2
2021/05/10 00:00:36;;;;;;;5.47;1.48;;;26.80;28.30;;;;;;5061350;28;20043;-69
2021/05/10 00:03:02;;;;;;;5.90;1.83;;;26.60;28.30;;;;;;5051192;28;20024;-71
2021/05/10 00:05:29;;;;;;;5.05;1.95;;;26.50;28.20;;;;;;5054044;28;20072;-69
2021/05/10 00:07:55;;;;;;;2.85;0.95;;;26.50;28.60;;;;;;5055308;28;20349;-72
2021/05/10 00:10:22;;;;;;;6.85;2.05;;;26.40;29.20;;;;;;5056997;28;20029;-73
2021/05/10 00:12:48;;;;;;;11.73;2.08;;;26.60;28.50;;;;;;5057436;28;20469;-74
2021/05/10 00:15:15;;;;;;;6.78;2.50;;;26.60;29.00;;;;;;5053860;28;20090;-71
2021/05/10 00:17:42;;;;;;;10.07;1.98;;;26.60;29.50;;;;;;5057559;28;20043;-72
2021/05/10 00:20:09;;;;;;;9.38;2.65;;;26.70;30.00;;;;;;5056993;28;20029;-71
2021/05/10 00:22:35;;;;;;;13.60;2.22;;;26.80;30.00;;;;;;5050944;28;20422;-71
2021/05/10 00:25:02;;;;;;;11.27;2.38;;;26.80;30.20;;;;;;5057992;28;20096;-71
2021/05/10 00:27:28;;;;;;;7.80;2.20;;;26.90;30.40;;;;;;5058261;28;20029;-72
2021/05/10 00:29:55;;;;;;;14.85;3.13;;;26.90;30.10;;;;;;5058979;28;20103;-71
2021/05/10 00:32:21;;;;;;;15.73;3.05;;;26.50;30.30;;;;;;5053707;28;20049;-70
2021/05/10 00:34:49;;;;;;;15.15;3.28;;;26.30;30.90;;;;;;5047982;28;20017;-70
2021/05/10 00:37:16;;;;;;;12.93;3.83;;;26.10;31.10;;;;;;5056847;28;20033;-70
2021/05/10 00:39:42;;;;;;;15.00;3.50;;;25.80;31.20;;;;;;5060856;28;20378;-70
2021/05/10 00:42:08;;;;;;;9.90;2.70;;;25.40;31.90;;;;;;5060418;28;20041;-69
2021/05/10 00:44:35;;;;;;;13.10;3.63;;;25.30;32.50;;;;;;5052333;28;20362;-70
2021/05/10 00:47:01;;;;;;;11.93;3.50;;;25.20;32.60;;;;;;5056737;28;20469;-69
2021/05/10 00:49:28;;;;;;;14.00;3.75;;;25.10;32.60;;;;;;5059586;28;20033;-70
2021/05/10 00:51:54;;;;;;;12.20;2.55;;;25.00;32.30;;;;;;5057516;28;20392;-69
2021/05/10 00:54:20;;;;;;;11.38;2.10;;;24.90;32.80;;;;;;5060566;28;20028;-70
2021/05/10 00:56:47;;;;;;;6.47;1.83;;;24.90;33.10;;;;;;5054861;28;20674;-70
2021/05/10 00:59:14;;;;;;;14.30;3.20;;;24.70;33.00;;;;;;5062078;28;20033;-69
2021/05/10 01:01:41;;;;;;;11.05;1.98;;;24.70;33.20;;;;;;5061411;28;20082;-69
2021/05/10 01:04:07;;;;;;;12.10;2.75;;;24.50;33.30;;;;;;5057391;28;20036;-69
2021/05/10 01:06:34;;;;;;;11.32;3.05;;;24.50;33.80;;;;;;5059639;28;20100;-69
2021/05/10 01:09:00;;;;;;;9.95;3.30;;;24.20;33.70;;;;;;5060912;28;20090;-70
2021/05/10 01:11:26;;;;;;;16.15;3.28;;;24.10;34.30;;;;;;5054945;28;20121;-70
2021/05/10 01:13:53;;;;;;;11.60;3.03;;;24.10;34.70;;;;;;5060246;28;20099;-71
2021/05/10 01:16:19;;;;;;;17.55;3.67;;;23.90;34.60;;;;;;5063397;28;20032;-69
2021/05/10 01:18:46;;;;;;;10.95;3.38;;;23.80;35.10;;;;;;5063592;28;20062;-70
2021/05/10 01:21:13;;;;;;;11.50;3.20;;;23.60;35.10;;;;;;5052728;28;20025;-70
2021/05/10 01:23:41;;;;;;;20.65;3.42;;;23.40;35.80;;;;;;5058656;28;20035;-70
2021/05/10 01:26:08;;;;;;;10.25;3.40;;;23.10;35.70;;;;;;5058536;28;20031;-70
2021/05/10 01:28:35;;;;;;;7.75;2.65;;;22.90;36.40;;;;;;5058872;28;20047;-70
2021/05/10 01:31:02;;;;;;;11.32;3.65;;;22.90;36.50;;;;;;5059147;28;20029;-70
2021/05/10 01:33:29;;;;;;;14.32;4.20;;;22.80;36.30;;;;;;5061015;28;20029;-71
2021/05/10 01:35:55;;;;;;;13.80;4.18;;;22.70;36.60;;;;;;5061596;28;20028;-70
2021/05/10 01:38:21;;;;;;;20.98;3.42;;;22.80;37.00;;;;;;5061604;28;20409;-70
2021/05/10 01:40:48;;;;;;;12.35;3.85;;;22.60;36.50;;;;;;5061886;28;20040;-70
2021/05/10 01:43:17;;;;;;;18.02;5.13;;;22.60;37.50;;;;;;5060164;28;20025;-71
2021/05/10 01:45:44;;;;;;;20.08;3.75;;;22.40;37.60;;;;;;5061508;28;20088;-70
2021/05/10 01:48:13;;;;;;;11.05;3.50;;;22.20;37.40;;;;;;5061043;28;20020;-71
2021/05/10 01:50:41;;;;;;;20.27;4.82;;;22.10;37.60;;;;;;5060859;28;20064;-70
2021/05/10 01:53:08;;;;;;;18.95;4.60;;;21.80;38.60;;;;;;5058576;28;20367;-70
2021/05/10 01:55:35;;;;;;;18.75;4.32;;;21.60;38.80;;;;;;5062828;28;20067;-71
2021/05/10 01:58:04;;;;;;;25.90;5.00;;;21.50;39.40;;;;;;5061468;28;20461;-70
2021/05/10 02:00:36;;;;;;;14.27;4.63;;;21.20;39.40;;;;;;5060682;28;20040;-69
2021/05/10 02:03:04;;;;;;;19.42;4.15;;;21.10;40.30;;;;;;5061726;28;20472;-71
2021/05/10 02:05:31;;;;;;;16.50;3.08;;;20.90;40.50;;;;;;5065938;28;20504;-71
2021/05/10 02:08:00;;;;;;;16.67;3.97;;;20.60;40.60;;;;;;5059047;28;20029;-70
2021/05/10 02:10:28;;;;;;;12.75;4.35;;;20.50;41.50;;;;;;5058306;28;20021;-70
2021/05/10 02:12:59;;;;;;;17.52;5.25;;;20.20;42.20;;;;;;5058017;28;20064;-70
2021/05/10 02:15:31;;;;;;;16.60;3.42;;;20.10;42.30;;;;;;5057877;28;20083;-70
2021/05/10 02:17:58;;;;;;;19.38;4.15;;;20.00;42.70;;;;;;5058474;28;20036;-69
2021/05/10 02:20:26;;;;;;;19.02;5.60;;;19.70;43.30;;;;;;5056457;28;20032;-70
2021/05/10 02:22:58;;;;;;;15.93;4.32;;;19.60;44.20;;;;;;5062280;28;20028;-69
2021/05/10 02:25:27;;;;;;;16.27;4.72;;;19.30;44.20;;;;;;5055689;28;20111;-69
2021/05/10 02:27:54;;;;;;;17.95;3.85;;;19.20;45.00;;;;;;5058926;28;20067;-70
2021/05/10 02:30:25;;;;;;;23.15;3.80;;;19.00;45.10;;;;;;5060656;28;20035;-69
2021/05/10 02:32:53;;;;;;;20.55;4.80;;;18.90;45.60;;;;;;5058683;28;20502;-68
2021/05/10 02:35:20;;;;;;;19.38;3.70;;;18.80;45.90;;;;;;5051901;28;20036;-69
2021/05/10 02:37:47;;;;;;;17.63;4.18;;;18.70;46.30;;;;;;5057021;28;20025;-70
2021/05/10 02:40:14;;;;;;;18.83;4.30;;;18.60;46.80;;;;;;5060876;28;20033;-70
2021/05/10 02:42:41;;;;;;;14.95;4.90;;;18.50;46.90;;;;;;5062301;28;20544;-71
2021/05/10 02:45:08;;;;;;;24.13;4.53;;;18.40;47.30;;;;;;5055309;28;20512;-69
2021/05/10 02:47:35;;;;;;;14.15;3.97;;;18.20;47.10;;;;;;5055539;28;20025;-71
2021/05/10 02:50:04;;;;;;;14.95;3.30;;;18.20;47.50;;;;;;5052527;28;20129;-70
2021/05/10 02:52:30;;;;;;;23.08;4.72;;;18.10;47.80;;;;;;5057693;28;20040;-69
2021/05/10 02:54:56;;;;;;;17.10;3.10;;;18.00;48.20;;;;;;5061298;28;20031;-69
2021/05/10 02:57:23;;;;;;;11.88;3.55;;;18.00;48.50;;;;;;5057005;28;20497;-69
2021/05/10 02:59:49;;;;;;;15.00;3.25;;;17.90;47.60;;;;;;5055471;28;20120;-70
2021/05/10 03:02:16;;;;;;;15.68;3.85;;;17.80;48.90;;;;;;5058092;28;20698;-70
2021/05/10 03:04:42;;;;;;;27.38;6.30;;;17.80;49.50;;;;;;5062100;28;20078;-70
2021/05/10 03:07:08;;;;;;;20.75;4.60;;;17.70;49.40;;;;;;5055839;28;20029;-70
2021/05/10 03:09:35;;;;;;;15.90;4.43;;;17.60;48.90;;;;;;5062410;28;20017;-70
2021/05/10 03:12:01;;;;;;;10.55;3.90;;;17.50;50.20;;;;;;5057218;28;20108;-70
2021/05/10 03:14:28;;;;;;;11.52;4.97;;;17.40;49.80;;;;;;5055258;28;20135;-69
2021/05/10 03:16:54;;;;;;;21.05;5.30;;;17.30;49.90;;;;;;5055700;28;20108;-70
2021/05/10 03:19:21;;;;;;;21.33;5.18;;;17.20;50.40;;;;;;5061302;28;20386;-69
2021/05/10 03:21:47;;;;;;;18.70;4.47;;;17.10;51.30;;;;;;5058805;28;20035;-70
2021/05/10 03:24:14;;;;;;;21.67;7.43;;;17.10;50.80;;;;;;5057472;28;20354;-70
2021/05/10 03:26:41;;;;;;;22.30;4.25;;;17.10;51.60;;;;;;5059236;28;20040;-70
2021/05/10 03:29:08;;;;;;;14.75;4.63;;;17.00;51.80;;;;;;5058969;28;20465;-70
2021/05/10 03:31:36;;;;;;;21.15;4.53;;;16.90;51.50;;;;;;5059067;28;20462;-70
2021/05/10 03:34:04;;;;;;;19.02;4.50;;;16.70;51.90;;;;;;5059404;28;20366;-70
2021/05/10 03:36:31;;;;;;;17.75;4.60;;;16.80;51.80;;;;;;5059123;28;20530;-70
2021/05/10 03:38:57;;;;;;;19.80;5.38;;;16.70;52.60;;;;;;5052938;28;20044;-70
2021/05/10 03:41:24;;;;;;;19.13;4.10;;;16.70;52.00;;;;;;5060276;28;20028;-70
2021/05/10 03:43:50;;;;;;;18.30;5.15;;;16.60;52.60;;;;;;5061304;28;20114;-71
2021/05/10 03:46:17;;;;;;;31.70;6.55;;;16.70;53.50;;;;;;5060798;28;20358;-71
2021/05/10 03:48:44;;;;;;;20.95;3.83;;;16.50;52.00;;;;;;5061142;28;20021;-71
2021/05/10 03:51:11;;;;;;;27.48;6.93;;;16.50;51.30;;;;;;5061049;28;20113;-70
2021/05/10 03:53:37;;;;;;;20.75;5.43;;;16.60;52.00;;;;;;5061546;28;20099;-70
2021/05/10 03:56:04;;;;;;;22.17;5.57;;;16.50;53.30;;;;;;5060537;28;20033;-72
2021/05/10 03:58:30;;;;;;;14.60;3.70;;;16.50;53.10;;;;;;5060352;28;20029;-71
2021/05/10 04:00:56;;;;;;;21.42;4.95;;;16.40;52.90;;;;;;5062390;28;20115;-70
2021/05/10 04:03:26;;;;;;;22.05;6.20;;;16.20;53.10;;;;;;5056637;28;20021;-71
2021/05/10 04:14:12;;;;;;;22.55;5.75;;;16.20;53.10;;;;;;5062135;28;20032;-70
2021/05/10 04:16:39;;;;;;;13.55;4.10;;;16.20;52.50;;;;;;5062109;28;20385;-69
2021/05/10 04:19:05;;;;;;;22.90;5.43;;;16.00;51.00;;;;;;5060928;28;20067;-71
2021/05/10 04:21:31;;;;;;;21.00;4.38;;;16.40;53.30;;;;;;5063518;28;20446;-70
2021/05/10 04:23:58;;;;;;;22.02;6.15;;;16.50;52.10;;;;;;5065700;28;20033;-70
2021/05/10 04:26:24;;;;;;;20.95;4.68;;;16.60;51.80;;;;;;5066481;28;20029;-69
2021/05/10 04:28:50;;;;;;;25.40;5.10;;;16.40;51.40;;;;;;5064893;28;20455;-70
2021/05/10 04:31:17;;;;;;;14.27;4.45;;;16.50;51.70;;;;;;5061007;28;20374;-69
2021/05/10 04:33:43;;;;;;;18.63;6.18;;;16.40;51.40;;;;;;5061041;28;20039;-70
2021/05/10 04:36:10;;;;;;;16.02;4.90;;;16.30;52.90;;;;;;5060366;28;20036;-69
2021/05/10 04:38:40;;;;;;;24.83;6.75;;;16.20;53.00;;;;;;5065225;28;20033;-70
2021/05/10 04:41:07;;;;;;;21.10;4.38;;;16.30;53.00;;;;;;5066652;28;20493;-69
2021/05/10 04:43:33;;;;;;;25.30;5.68;;;16.30;52.70;;;;;;5065790;28;20078;-69
2021/05/10 04:46:00;;;;;;;20.85;5.72;;;16.30;52.70;;;;;;5065894;28;20039;-70
2021/05/10 04:48:28;;;;;;;21.27;6.25;;;16.40;53.40;;;;;;5065519;28;20021;-70
2021/05/10 04:50:54;;;;;;;21.17;6.35;;;16.30;51.90;;;;;;5065813;28;20029;-69
2021/05/10 04:53:21;;;;;;;26.02;5.80;;;16.00;53.70;;;;;;5065821;28;20107;-69
2021/05/10 04:55:48;;;;;;;12.18;3.65;;;15.80;54.60;;;;;;5065498;28;20035;-69
2021/05/10 04:58:14;;;;;;;16.02;4.53;;;15.80;53.70;;;;;;5063203;28;20021;-69
2021/05/10 05:00:41;;;;;;;24.13;4.35;;;15.90;53.90;;;;;;5062208;28;20433;-69
2021/05/10 05:03:07;;;;;;;23.58;4.50;;;16.00;53.70;;;;;;5061154;28;20381;-70
2021/05/10 05:05:33;;;;;;;15.82;5.15;;;15.60;55.80;;;;;;5064340;28;20044;-70
2021/05/10 05:08:00;;;;;;;18.80;6.75;;;15.70;54.70;;;;;;5062393;28;20076;-69
2021/05/10 05:10:27;;;;;;;26.05;6.40;;;15.80;54.30;;;;;;5060111;28;20021;-69
2021/05/10 05:12:53;;;;;;;25.58;5.15;;;15.70;55.20;;;;;;5061927;28;20373;-70
2021/05/10 05:15:22;;;;;;;32.88;7.22;;;15.80;53.60;;;;;;5063323;28;20033;-70
2021/05/10 05:17:48;;;;;;;16.45;5.25;;;16.00;54.50;;;;;;5063429;28;20032;-70
2021/05/10 05:20:18;;;;;;;15.02;4.88;;;16.00;52.90;;;;;;5061289;28;20026;-69
2021/05/10 05:22:44;;;;;;;13.82;6.28;;;16.00;54.30;;;;;;5059317;28;20108;-69
2021/05/10 05:25:11;;;;;;;32.30;4.75;;;15.90;53.80;;;;;;5061870;28;20457;-69
2021/05/10 05:27:37;;;;;;;26.33;5.65;;;15.90;53.60;;;;;;5062799;28;20025;-69
2021/05/10 05:30:05;;;;;;;29.33;4.93;;;16.00;54.40;;;;;;5063307;28;20107;-69
2021/05/10 05:32:32;;;;;;;15.77;3.85;;;15.70;54.20;;;;;;5064468;28;20074;-69
2021/05/10 05:34:58;;;;;;;23.42;4.60;;;15.70;54.30;;;;;;5060657;28;20101;-69
2021/05/10 05:37:27;;;;;;;35.83;7.47;;;15.90;55.10;;;;;;5062629;28;20471;-69
2021/05/10 05:39:54;;;;;;;27.65;5.05;;;15.90;55.10;;;;;;5062951;28;20033;-72
2021/05/10 05:42:20;;;;;;;19.15;5.82;;;16.00;55.60;;;;;;5064954;28;20052;-70
2021/05/10 05:44:53;;;;;;;25.98;5.93;;;15.90;55.40;;;;;;5063182;28;20450;-70
2021/05/10 05:47:25;;;;;;;;;;;15.80;55.80;;;;;;5061242;28;20362;-70
2021/05/10 05:49:52;;;;;;;37.25;6.50;;;15.70;54.20;;;;;;5063830;28;19969;-69
2021/05/10 05:52:21;;;;;;;20.95;6.10;;;15.40;55.20;;;;;;5062173;28;20079;-70
2021/05/10 05:54:48;;;;;;;21.92;5.55;;;15.60;55.10;;;;;;5063804;28;20115;-70
2021/05/10 05:57:15;;;;;;;17.30;4.78;;;15.50;55.50;;;;;;5066128;28;20024;-70
2021/05/10 05:59:41;;;;;;;19.02;5.05;;;15.50;55.20;;;;;;5066842;28;20036;-71
2021/05/10 06:02:08;;;;;;;21.63;5.13;;;15.60;55.60;;;;;;5063345;28;20024;-70
2021/05/10 06:04:34;;;;;;;32.97;5.88;;;15.60;56.00;;;;;;5063185;28;20036;-69
2021/05/10 06:07:00;;;;;;;22.00;4.53;;;15.60;55.40;;;;;;5063337;28;20037;-69
2021/05/10 06:09:27;;;;;;;22.10;4.30;;;15.50;55.40;;;;;;5061262;28;20528;-69
2021/05/10 06:11:55;;;;;;;31.92;6.88;;;15.60;55.70;;;;;;5063217;28;20033;-69
2021/05/10 06:14:22;;;;;;;22.00;5.18;;;15.50;55.60;;;;;;5062151;28;20112;-70
2021/05/10 06:16:49;;;;;;;14.88;4.72;;;15.50;55.80;;;;;;5063014;28;20028;-69
2021/05/10 06:19:16;;;;;;;25.10;5.47;;;15.30;56.40;;;;;;5062266;28;20059;-69
2021/05/10 06:21:42;;;;;;;28.05;7.88;;;15.40;54.80;;;;;;5061876;28;20331;-70
2021/05/10 06:24:09;;;;;;;23.50;5.90;;;15.20;55.90;;;;;;5062904;28;20021;-70
2021/05/10 06:26:35;;;;;;;24.90;6.72;;;15.40;56.30;;;;;;5062948;28;20028;-69
2021/05/10 06:29:02;;;;;;;21.48;4.75;;;15.40;55.90;;;;;;5063183;28;20473;-69
2021/05/10 06:31:28;;;;;;;20.65;4.95;;;15.40;55.50;;;;;;5060361;28;20033;-69
2021/05/10 06:33:54;;;;;;;19.55;5.57;;;15.50;55.60;;;;;;5062330;28;20037;-70
2021/05/10 06:36:21;;;;;;;21.00;5.28;;;15.60;54.90;;;;;;5060652;28;20033;-69
2021/05/10 06:38:48;;;;;;;21.10;6.72;;;15.40;56.00;;;;;;5062782;28;20447;-70
2021/05/10 06:41:15;;;;;;;19.42;4.85;;;15.30;56.10;;;;;;5061739;28;20033;-70
2021/05/10 06:43:41;;;;;;;22.98;5.43;;;15.40;54.90;;;;;;5061770;28;20110;-69
2021/05/10 06:46:07;;;;;;;23.10;6.68;;;15.50;56.40;;;;;;5061477;28;20021;-69
2021/05/10 06:48:35;;;;;;;34.13;5.80;;;15.30;55.50;;;;;;5063838;28;20021;-70
2021/05/10 06:51:02;;;;;;;20.33;4.15;;;15.30;54.80;;;;;;5061559;28;20056;-69
2021/05/10 06:53:29;;;;;;;13.52;5.13;;;15.10;55.70;;;;;;5060993;28;20029;-70
2021/05/10 06:55:56;;;;;;;28.23;6.40;;;15.00;56.10;;;;;;5062806;28;20108;-70
2021/05/10 06:58:23;;;;;;;27.25;5.43;;;15.00;56.50;;;;;;5062399;28;20492;-69
2021/05/10 07:00:54;;;;;;;23.73;4.28;;;15.10;55.50;;;;;;5060304;28;20379;-69
2021/05/10 07:03:21;;;;;;;17.10;6.82;;;15.00;57.10;;;;;;5061658;28;20036;-69
2021/05/10 07:05:49;;;;;;;27.15;5.97;;;15.00;55.40;;;;;;5058780;28;20031;-69
2021/05/10 07:08:16;;;;;;;29.83;6.28;;;15.30;55.40;;;;;;5062133;28;20063;-69
2021/05/10 07:10:51;;;;;;;23.05;6.65;;;15.20;54.50;;;;;;5059374;28;20028;-69
2021/05/10 07:13:21;;;;;;;27.52;4.63;;;15.40;56.50;;;;;;5062688;28;20036;-69
2021/05/10 07:15:48;;;;;;;21.63;5.43;;;15.20;55.10;;;;;;5062642;28;20127;-69
2021/05/10 07:18:16;;;;;;;33.10;5.93;;;15.40;56.90;;;;;;5061750;28;20036;-69
2021/05/10 07:20:44;;;;;;;23.27;5.85;;;15.40;56.60;;;;;;5061283;28;20362;-69
2021/05/10 07:23:12;;;;;;;24.48;6.15;;;15.10;54.80;;;;;;5061808;28;20024;-69
2021/05/10 07:25:49;;;;;;;15.85;4.57;;;15.20;56.10;;;;;;5062166;28;20021;-69
2021/05/10 07:28:18;;;;;;;25.48;5.97;;;15.10;55.60;;;;;;5062477;28;20025;-69
2021/05/10 07:30:45;;;;;;;21.85;4.60;;;15.00;55.20;;;;;;5061078;28;20032;-69
2021/05/10 07:33:12;;;;;;;26.50;4.75;;;15.20;55.80;;;;;;5060225;28;20040;-68
2021/05/10 07:35:39;;;;;;;21.38;4.10;;;15.00;55.60;;;;;;5060808;28;20037;-69
2021/05/10 07:38:05;;;;;;;32.10;7.75;;;14.90;56.40;;;;;;5061343;28;20417;-69
2021/05/10 07:40:32;;;;;;;14.85;4.53;;;15.00;55.40;;;;;;5062561;28;20075;-69
2021/05/10 07:43:00;;;;;;;19.45;3.85;;;15.20;56.30;;;;;;5062427;28;20021;-69
2021/05/10 07:45:27;;;;;;;18.15;5.72;;;15.00;55.10;;;;;;5061910;28;20099;-70
2021/05/10 07:47:54;;;;;;;17.88;4.97;;;15.00;54.50;;;;;;5060581;28;20166;-70
2021/05/10 07:50:22;;;;;;;19.58;5.15;;;15.10;54.70;;;;;;5060030;28;20115;-69
2021/05/10 07:52:49;;;;;;;38.55;6.28;;;15.10;54.40;;;;;;5060927;28;20021;-70
2021/05/10 07:55:16;;;;;;;13.75;5.07;;;15.10;54.90;;;;;;5063245;28;20043;-70
2021/05/10 07:57:42;;;;;;;30.30;7.38;;;15.00;54.90;;;;;;5075089;28;20032;-69
2021/05/10 08:00:13;;;;;;;17.52;4.28;;;15.00;54.90;;;;;;5068094;28;20091;-70
2021/05/10 08:02:42;;;;;;;30.73;6.78;;;14.90;54.60;;;;;;5061993;28;20098;-69
2021/05/10 08:05:09;;;;;;;25.02;6.05;;;15.10;57.00;;;;;;5059810;28;20369;-70
2021/05/10 08:07:35;;;;;;;21.83;6.00;;;15.10;55.50;;;;;;5062000;28;20036;-69
2021/05/10 08:10:03;;;;;;;14.30;4.35;;;15.00;54.70;;;;;;5059553;28;20017;-70
2021/05/10 08:12:30;;;;;;;17.50;4.55;;;15.00;55.70;;;;;;5060965;28;20067;-70
2021/05/10 08:14:56;;;;;;;21.83;4.95;;;14.90;55.70;;;;;;5058945;28;20046;-69
2021/05/10 08:17:23;;;;;;;28.05;5.05;;;14.90;54.40;;;;;;5059837;28;20040;-70
2021/05/10 08:19:49;;;;;;;17.92;4.88;;;15.00;54.80;;;;;;5061619;28;20473;-69
2021/05/10 08:22:16;;;;;;;16.52;4.30;;;14.90;54.30;;;;;;5061656;28;20037;-70
2021/05/10 08:24:43;;;;;;;17.95;4.78;;;14.80;54.50;;;;;;5060908;28;20028;-69
2021/05/10 08:27:09;;;;;;;17.73;5.25;;;14.90;54.70;;;;;;5058798;28;20025;-70
2021/05/10 08:29:36;;;;;;;21.52;7.07;;;14.80;54.00;;;;;;5061836;28;20025;-70
2021/05/10 08:32:03;;;;;;;14.55;4.65;;;14.80;55.40;;;;;;5061487;28;20035;-69
2021/05/10 08:34:29;;;;;;;23.40;7.78;;;14.80;55.10;;;;;;5059782;28;20024;-70
2021/05/10 08:36:56;;;;;;;19.70;7.07;;;14.70;54.60;;;;;;5057346;28;20036;-70
2021/05/10 08:39:23;;;;;;;21.67;5.10;;;14.90;56.60;;;;;;5063332;28;20139;-70
2021/05/10 08:41:50;;;;;;;17.70;3.83;;;14.80;55.80;;;;;;5060126;28;20107;-69
2021/05/10 08:44:17;;;;;;;32.70;5.35;;;14.60;56.30;;;;;;5060862;28;20021;-69
2021/05/10 08:46:44;;;;;;;13.68;3.08;;;14.60;56.80;;;;;;5062242;28;20767;-69
2021/05/10 08:49:12;;;;;;;28.48;5.97;;;14.60;56.30;;;;;;5061759;28;20021;-69
2021/05/10 08:51:39;;;;;;;27.42;4.63;;;14.60;56.80;;;;;;5061188;28;20033;-71
2021/05/10 08:54:25;;;;;;;25.55;4.15;;;14.70;55.80;;;;;;5059905;28;20139;-69
2021/05/10 08:56:56;;;;;;;35.88;8.48;;;14.50;56.30;;;;;;5061836;28;20036;-69
2021/05/10 08:59:24;;;;;;;27.17;4.97;;;14.60;56.20;;;;;;5061908;28;20033;-70
2021/05/10 09:01:54;;;;;;;19.92;5.43;;;14.80;56.40;;;;;;5060601;28;20099;-70
2021/05/10 09:04:38;;;;;;;18.83;4.93;;;14.60;56.20;;;;;;5060483;28;20033;-70
2021/05/10 09:07:19;;;;;;;19.35;6.45;;;14.60;56.40;;;;;;5062195;28;20032;-69
2021/05/10 09:10:00;;;;;;;20.13;5.65;;;14.40;56.80;;;;;;5064370;28;20093;-69
2021/05/10 09:12:59;;;;;;;33.45;7.45;;;14.50;57.20;;;;;;5063783;28;20032;-69
2021/05/10 09:15:28;;;;;;;18.33;5.93;;;14.60;56.60;;;;;;5042048;28;20041;-69
2021/05/10 09:18:08;;;;;;;18.23;4.75;;;14.60;56.70;;;;;;5061820;28;20039;-69
2021/05/10 09:20:37;;;;;;;20.92;5.45;;;14.40;57.90;;;;;;5064392;28;20028;-69
2021/05/10 09:23:08;;;;;;;19.95;4.97;;;14.50;57.30;;;;;;5065550;28;20032;-69
2021/05/10 09:25:42;;;;;;;26.70;7.40;;;14.50;57.60;;;;;;5063129;28;20032;-69
2021/05/10 09:28:27;;;;;;;17.20;5.28;;;14.60;57.80;;;;;;5063031;28;20027;-69
2021/05/10 09:31:03;;;;;;;17.60;4.93;;;14.50;57.40;;;;;;5060690;28;20096;-69
2021/05/10 09:33:30;;;;;;;28.92;5.15;;;14.50;57.20;;;;;;5062760;28;20039;-69
2021/05/10 09:35:58;;;;;;;28.85;7.45;;;14.40;58.20;;;;;;5065664;28;20059;-69
2021/05/10 09:38:28;;;;;;;17.23;5.07;;;14.20;58.20;;;;;;5063465;28;20032;-69
2021/05/10 09:40:58;;;;;;;15.88;4.15;;;14.20;57.20;;;;;;5061297;28;20036;-69
2021/05/10 09:43:29;;;;;;;21.73;5.50;;;14.30;57.50;;;;;;5064424;28;20362;-69
2021/05/10 09:46:03;;;;;;;22.42;4.47;;;14.30;57.70;;;;;;5064482;28;20025;-70
2021/05/10 09:48:35;;;;;;;22.45;4.45;;;14.30;57.30;;;;;;5060601;28;20090;-71
2021/05/10 09:51:05;;;;;;;16.60;4.65;;;14.20;56.90;;;;;;5064752;28;20039;-70
2021/05/10 09:53:40;;;;;;;30.88;5.47;;;14.30;57.00;;;;;;5063891;28;20044;-69
2021/05/10 09:56:11;;;;;;;18.92;5.45;;;14.60;58.80;;;;;;5063649;28;20127;-69
2021/05/10 09:58:40;;;;;;;19.17;5.15;;;14.60;58.80;;;;;;5062999;28;20025;-70
2021/05/10 10:01:07;;;;;;;15.30;4.45;;;14.50;57.20;;;;;;5063924;28;20029;-70
2021/05/10 10:03:45;;;;;;;18.15;5.47;;;14.30;57.70;;;;;;5063923;28;20377;-70
2021/05/10 10:06:13;;;;;;;13.75;3.58;;;14.20;56.80;;;;;;5066032;28;20040;-69
2021/05/10 10:08:42;;;;;;;14.93;5.00;;;14.20;56.80;;;;;;5063179;28;20506;-69
2021/05/10 10:11:10;;;;;;;13.35;4.70;;;14.20;56.80;;;;;;5062844;28;20025;-69
2021/05/10 10:13:56;;;;;;;15.55;4.18;;;14.10;56.80;;;;;;5062767;28;20370;-70
2021/05/10 10:16:24;;;;;;;18.40;4.30;;;14.10;57.60;;;;;;5064649;28;20051;-69
2021/05/10 10:18:52;;;;;;;7.65;3.03;;;14.10;56.80;;;;;;5063117;28;20024;-70
2021/05/10 10:21:21;;;;;;;14.98;4.40;;;14.10;56.50;;;;;;5062177;28;20518;-69
2021/05/10 10:24:05;;;;;;;21.88;4.85;;;14.00;56.10;;;;;;5064030;28;20429;-70
2021/05/10 10:26:34;;;;;;;17.00;4.70;;;14.10;56.90;;;;;;5063629;28;20404;-69
2021/05/10 10:29:10;;;;;;;15.77;4.10;;;14.20;56.90;;;;;;5062764;28;20051;-70
2021/05/10 10:31:40;;;;;;;14.75;4.88;;;14.10;56.70;;;;;;5063814;28;20071;-69
2021/05/10 10:34:28;;;;;;;7.60;3.42;;;14.10;58.00;;;;;;5062954;28;20033;-69
2021/05/10 10:36:59;;;;;;;14.30;4.40;;;14.10;57.20;;;;;;5063631;28;20031;-71
2021/05/10 10:39:30;;;;;;;13.82;4.88;;;14.10;56.70;;;;;;5061947;28;20446;-70
2021/05/10 10:42:05;;;;;;;16.48;4.20;;;14.00;57.90;;;;;;5061433;28;20100;-69
2021/05/10 10:44:52;;;;;;;13.30;3.88;;;13.90;57.50;;;;;;5062402;28;20323;-70
2021/05/10 10:48:07;;;;;;;16.33;5.13;;;14.10;58.90;;;;;;5063342;28;20017;-70
2021/05/10 10:51:00;;;;;;;21.27;7.20;;;14.10;58.00;;;;;;5062962;28;20047;-69
2021/05/10 10:54:00;;;;;;;10.18;3.78;;;14.00;57.60;;;;;;5063348;28;20131;-70
2021/05/10 10:56:53;;;;;;;15.20;4.10;;;13.90;56.90;;;;;;5040000;28;20032;-69
2021/05/10 10:59:25;;;;;;;19.52;4.65;;;13.90;57.60;;;;;;5061883;28;20450;-69
2021/05/10 11:01:52;;;;;;;26.85;5.72;;;13.90;58.20;;;;;;5062694;28;20044;-69
2021/05/10 11:04:29;;;;;;;20.92;5.28;;;13.90;58.20;;;;;;5059876;28;20025;-69
2021/05/10 11:06:56;;;;;;;16.65;5.38;;;13.80;58.20;;;;;;5061833;28;20323;-69
2021/05/10 11:09:47;;;;;;;22.13;4.88;;;13.70;58.10;;;;;;5060507;28;20404;-69
2021/05/10 11:12:51;;;;;;;9.77;3.03;;;13.80;57.10;;;;;;5062461;28;20024;-69
2021/05/10 11:15:36;;;;;;;12.73;3.45;;;13.80;57.30;;;;;;5063264;28;20032;-69
2021/05/10 11:18:05;;;;;;;15.88;5.28;;;13.80;56.90;;;;;;5062405;28;20412;-69
2021/05/10 11:20:42;;;;;;;21.00;4.45;;;13.80;57.70;;;;;;5061484;28;20060;-69
2021/05/10 11:23:24;;;;;;;19.00;3.83;;;13.90;57.80;;;;;;5059412;28;20047;-69
2021/05/10 11:25:52;;;;;;;15.13;3.70;;;14.00;58.60;;;;;;5061018;28;20465;-69
2021/05/10 11:28:28;;;;;;;13.60;2.97;;;14.00;58.60;;;;;;5060748;28;20036;-69
2021/05/10 11:30:55;;;;;;;21.40;4.40;;;14.00;58.30;;;;;;5061371;28;20062;-69
2021/05/10 11:33:55;;;;;;;26.45;4.75;;;13.90;58.70;;;;;;5061477;28;20060;-70
2021/05/10 11:36:32;;;;;;;15.23;4.35;;;13.80;58.20;;;;;;5060059;28;20041;-69
2021/05/10 11:39:01;;;;;;;19.90;4.65;;;13.80;58.10;;;;;;5062645;28;20040;-71
2021/05/10 11:41:38;;;;;;;18.90;3.72;;;13.70;58.90;;;;;;5060372;28;20477;-69
2021/05/10 11:44:09;;;;;;;16.20;4.00;;;13.80;59.10;;;;;;5060711;28;20104;-69
2021/05/10 11:46:41;;;;;;;22.60;3.75;;;13.80;59.40;;;;;;5061017;28;20024;-69
2021/05/10 11:49:10;;;;;;;22.52;5.53;;;13.70;58.70;;;;;;5062283;28;20116;-69
2021/05/10 11:51:40;;;;;;;19.73;5.13;;;13.70;58.50;;;;;;5060102;28;20031;-69
2021/05/10 11:54:08;;;;;;;24.95;5.88;;;13.60;58.30;;;;;;5062042;28;20032;-70
2021/05/10 11:56:42;;;;;;;12.38;4.13;;;13.60;59.80;;;;;;5061296;28;20028;-70
2021/05/10 11:59:38;;;;;;;22.02;4.55;;;13.70;58.90;;;;;;5063616;28;20027;-71
2021/05/10 12:02:14;;;;;;;14.77;4.07;;;13.60;59.30;;;;;;5059582;28;20028;-70
2021/05/10 12:04:49;;;;;;;12.38;3.42;;;13.60;58.80;;;;;;5063073;28;20116;-70
2021/05/10 12:07:17;;;;;;;21.45;4.07;;;13.60;59.80;;;;;;5060807;28;20025;-70
2021/05/10 12:10:01;;;;;;;18.58;4.80;;;13.50;59.10;;;;;;5060157;28;20021;-69
2021/05/10 12:12:45;;;;;;;10.80;3.35;;;13.40;58.60;;;;;;5061394;28;20025;-69
2021/05/10 12:15:18;;;;;;;8.02;3.08;;;13.50;59.10;;;;;;5062428;28;20459;-69
2021/05/10 12:17:51;;;;;;;16.00;5.75;;;13.40;58.40;;;;;;5058871;28;20479;-69
2021/05/10 12:20:37;;;;;;;13.07;3.75;;;13.50;59.30;;;;;;5061608;28;20036;-69
2021/05/10 12:23:05;;;;;;;8.60;3.38;;;13.40;58.90;;;;;;5061387;28;20181;-69
2021/05/10 12:25:36;;;;;;;13.45;4.35;;;13.40;59.10;;;;;;5060534;28;20036;-69
2021/05/10 12:28:20;;;;;;;21.83;4.38;;;13.40;59.50;;;;;;5062365;28;20066;-69
2021/05/10 12:30:56;;;;;;;25.42;4.68;;;13.40;59.30;;;;;;5061160;28;20515;-69
2021/05/10 12:33:27;;;;;;;13.13;3.35;;;13.40;59.70;;;;;;5061338;28;20032;-70
2021/05/10 12:35:59;;;;;;;25.23;5.38;;;13.40;59.70;;;;;;5061900;28;20138;-70
2021/05/10 12:38:32;;;;;;;11.30;3.07;;;13.40;59.70;;;;;;5058418;28;20043;-70
2021/05/10 12:41:00;;;;;;;17.80;4.03;;;13.30;59.40;;;;;;5062865;28;20288;-69
2021/05/10 12:43:28;;;;;;;22.10;4.53;;;13.20;59.30;;;;;;5064141;28;20370;-69
2021/05/10 12:45:57;;;;;;;17.38;4.22;;;13.20;59.60;;;;;;5065508;28;20016;-70
2021/05/10 12:48:25;;;;;;;8.80;3.55;;;13.00;59.40;;;;;;5064149;28;20021;-69
2021/05/10 12:51:04;;;;;;;10.70;3.70;;;13.00;60.00;;;;;;5065616;28;20032;-69
2021/05/10 12:53:36;;;;;;;12.18;5.18;;;12.90;60.10;;;;;;5066466;28;20107;-69
2021/05/10 12:56:11;;;;;;;14.70;4.50;;;12.90;59.70;;;;;;5066491;28;20029;-69
2021/05/10 12:58:45;;;;;;;11.98;4.03;;;12.90;59.40;;;;;;5066361;28;20025;-69